Time;durP1;ratioP1;P1;durP2;ratioP2;P2;SDS_P1;SDS_P2;PMS_P1;PMS_P2;Temp;Humidity;BMP_temperature;BMP_pressure;BME280_temperature;BME280_humidity;BME280_pressure;Samples;Min_cycle;Max_cycle;Signal;HPM_P1;HPM_P2
2022/10/15 00:00:26;;;;;;;12.25;6.82;;;;;;;;;;4998561;28;20514;-81
2022/10/15 00:02:52;;;;;;;13.77;7.70;;;;;;;;;;4976618;28;20041;-78
2022/10/15 00:05:18;;;;;;;12.43;6.50;;;;;;;;;;4974253;28;20457;-78
2022/10/15 00:07:43;;;;;;;13.10;7.35;;;;;;;;;;4984337;28;20034;-80
2022/10/15 00:10:09;;;;;;;10.32;5.95;;;;;;;;;;5011442;28;20068;-78
2022/10/15 00:12:34;;;;;;;24.40;9.77;;;;;;;;;;4993395;28;20038;-79
2022/10/15 00:15:01;;;;;;;12.90;7.00;;;;;;;;;;5011254;28;20037;-82
2022/10/15 00:17:26;;;;;;;11.13;6.70;;;;;;;;;;4977217;28;20498;-80
2022/10/15 00:19:52;;;;;;;13.70;7.05;;;;;;;;;;4993414;28;20033;-81
2022/10/15 00:22:17;;;;;;;12.00;7.00;;;;;;;;;;4992738;28;20053;-79
2022/10/15 00:24:43;;;;;;;13.30;6.47;;;;;;;;;;4988875;28;20038;-82
2022/10/15 00:27:08;;;;;;;11.00;6.97;;;;;;;;;;4973633;28;20030;-80
2022/10/15 00:29:34;;;;;;;10.95;6.47;;;;;;;;;;4957027;28;20034;-80
2022/10/15 00:31:59;;;;;;;12.10;6.35;;;;;;;;;;4990693;28;20030;-79
2022/10/15 00:34:25;;;;;;;11.98;7.05;;;;;;;;;;4973072;28;20092;-80
2022/10/15 00:36:50;;;;;;;16.52;7.07;;;;;;;;;;4972960;28;20079;-81
2022/10/15 00:39:16;;;;;;;12.85;6.00;;;;;;;;;;4990558;28;20037;-80
2022/10/15 00:41:43;;;;;;;12.45;6.85;;;;;;;;;;4973153;28;20030;-80
2022/10/15 00:44:23;;;;;;;9.50;5.75;;;;;;;;;;4973164;28;20034;-78
2022/10/15 00:46:53;;;;;;;11.93;6.50;;;;;;;;;;4990836;28;20670;-79
2022/10/15 00:49:29;;;;;;;11.55;6.03;;;;;;;;;;4990430;28;20034;-77
2022/10/15 00:52:05;;;;;;;13.30;6.95;;;;;;;;;;4972995;28;20040;-80
2022/10/15 00:54:36;;;;;;;10.23;6.22;;;;;;;;;;4990324;28;20064;-80
2022/10/15 00:57:03;;;;;;;9.23;6.63;;;;;;;;;;4972419;28;20117;-81
2022/10/15 00:59:30;;;;;;;9.68;6.28;;;;;;;;;;4972039;28;20022;-81
2022/10/15 01:01:59;;;;;;;9.93;6.47;;;;;;;;;;4972385;28;20033;-80
2022/10/15 01:04:25;;;;;;;8.30;5.93;;;;;;;;;;4972561;28;20037;-81
2022/10/15 01:06:51;;;;;;;10.32;6.07;;;;;;;;;;4990254;28;20109;-82
2022/10/15 01:09:17;;;;;;;14.38;6.68;;;;;;;;;;4990381;28;20157;-81
2022/10/15 01:11:49;;;;;;;10.45;6.38;;;;;;;;;;4972731;28;20030;-80
2022/10/15 01:14:31;;;;;;;12.13;6.18;;;;;;;;;;4972539;28;20030;-79
2022/10/15 01:16:56;;;;;;;;;;;;;;;;;;4972689;28;20031;-79
2022/10/15 01:20:00;;;;;;;10.60;5.70;;;;;;;;;;4973206;28;19910;-79
2022/10/15 01:22:44;;;;;;;10.77;5.93;;;;;;;;;;4992632;28;20050;-80
2022/10/15 01:25:36;;;;;;;13.73;6.78;;;;;;;;;;4980259;28;20033;-79
2022/10/15 01:28:20;;;;;;;10.93;5.65;;;;;;;;;;4977238;28;20042;-79
2022/10/15 01:30:49;;;;;;;10.10;5.80;;;;;;;;;;4975425;28;20033;-79
2022/10/15 01:33:25;;;;;;;12.05;6.47;;;;;;;;;;4974673;28;20545;-80
2022/10/15 01:35:56;;;;;;;13.48;6.00;;;;;;;;;;4974202;28;20030;-79
2022/10/15 01:38:31;;;;;;;12.50;6.80;;;;;;;;;;4973345;28;20077;-79
2022/10/15 01:41:09;;;;;;;8.93;5.93;;;;;;;;;;4976370;28;20034;-79
2022/10/15 01:43:56;;;;;;;10.43;5.88;;;;;;;;;;4977921;28;20026;-78
2022/10/15 01:46:45;;;;;;;10.10;5.53;;;;;;;;;;4995013;28;20077;-79
2022/10/15 01:49:14;;;;;;;9.85;6.05;;;;;;;;;;4976883;28;20052;-80
2022/10/15 01:51:42;;;;;;;11.27;6.70;;;;;;;;;;4976586;28;20042;-80
2022/10/15 01:54:12;;;;;;;10.27;7.43;;;;;;;;;;4976709;28;20018;-79
2022/10/15 01:56:39;;;;;;;11.55;7.90;;;;;;;;;;4959623;28;20084;-80
2022/10/15 01:59:07;;;;;;;12.18;6.70;;;;;;;;;;4976044;28;20022;-81
2022/10/15 02:01:33;;;;;;;9.90;6.53;;;;;;;;;;4975325;28;20029;-81
2022/10/15 02:03:58;;;;;;;14.32;7.65;;;;;;;;;;4975156;28;20071;-80
2022/10/15 02:06:38;;;;;;;9.63;6.75;;;;;;;;;;4974469;28;20045;-80
2022/10/15 02:09:52;;;;;;;11.57;6.75;;;;;;;;;;4974752;28;20026;-79
2022/10/15 02:12:23;;;;;;;13.55;6.50;;;;;;;;;;4947675;28;20045;-80
2022/10/15 02:15:14;;;;;;;13.35;6.70;;;;;;;;;;4992679;28;20070;-80
2022/10/15 02:18:14;;;;;;;10.77;6.53;;;;;;;;;;4992237;28;20023;-79
2022/10/15 02:20:54;;;;;;;9.77;6.28;;;;;;;;;;4975223;28;20026;-78
2022/10/15 02:23:40;;;;;;;10.80;7.00;;;;;;;;;;4949017;28;322881;-79
2022/10/15 02:26:08;;;;;;;11.77;6.57;;;;;;;;;;4975920;28;20134;-80
2022/10/15 02:28:37;;;;;;;10.73;6.47;;;;;;;;;;4993333;28;20682;-78
2022/10/15 02:31:05;;;;;;;12.18;6.72;;;;;;;;;;4960147;28;20586;-79
2022/10/15 02:33:32;;;;;;;10.10;6.28;;;;;;;;;;4993535;28;20018;-80
2022/10/15 02:35:58;;;;;;;13.50;6.43;;;;;;;;;;4993599;28;20118;-80
2022/10/15 02:38:27;;;;;;;10.52;6.53;;;;;;;;;;4976140;28;20029;-80
2022/10/15 02:40:53;;;;;;;11.05;6.53;;;;;;;;;;4975952;28;20101;-80
2022/10/15 02:43:21;;;;;;;13.27;7.07;;;;;;;;;;4976132;28;20022;-80
2022/10/15 02:45:48;;;;;;;11.23;6.82;;;;;;;;;;4975752;28;20084;-81
2022/10/15 02:48:14;;;;;;;14.48;6.40;;;;;;;;;;4976064;28;20058;-79
2022/10/15 02:50:39;;;;;;;18.50;7.18;;;;;;;;;;4975160;28;20080;-79
2022/10/15 02:53:05;;;;;;;14.95;7.15;;;;;;;;;;4975797;28;20022;-80
2022/10/15 02:55:31;;;;;;;9.85;6.07;;;;;;;;;;4975359;28;20122;-79
2022/10/15 02:57:56;;;;;;;15.48;6.72;;;;;;;;;;4993246;28;20510;-80
2022/10/15 03:00:22;;;;;;;12.40;6.63;;;;;;;;;;4975666;28;20037;-79
2022/10/15 03:02:48;;;;;;;24.02;8.27;;;;;;;;;;4975327;28;20029;-79
2022/10/15 03:05:13;;;;;;;10.93;7.18;;;;;;;;;;4975283;28;20018;-80
2022/10/15 03:07:39;;;;;;;10.43;6.53;;;;;;;;;;4975307;28;20145;-81
2022/10/15 03:10:06;;;;;;;10.75;6.72;;;;;;;;;;4975869;28;20375;-80
2022/10/15 03:12:31;;;;;;;17.75;8.63;;;;;;;;;;4975387;28;20337;-81
2022/10/15 03:14:57;;;;;;;19.85;7.32;;;;;;;;;;4974957;28;20037;-81
2022/10/15 03:17:22;;;;;;;12.13;7.13;;;;;;;;;;4974896;28;20046;-79
2022/10/15 03:19:48;;;;;;;9.65;6.32;;;;;;;;;;4974844;28;20026;-80
2022/10/15 03:22:13;;;;;;;13.65;6.18;;;;;;;;;;4974645;28;20052;-79
2022/10/15 03:24:39;;;;;;;12.90;6.60;;;;;;;;;;4974690;28;20034;-79
2022/10/15 03:27:04;;;;;;;12.55;7.05;;;;;;;;;;4975151;28;20026;-78
2022/10/15 03:29:30;;;;;;;9.68;6.97;;;;;;;;;;4974279;28;20045;-80
2022/10/15 03:31:55;;;;;;;12.63;6.78;;;;;;;;;;4974943;28;20030;-79
2022/10/15 03:34:21;;;;;;;13.27;6.35;;;;;;;;;;4975100;28;20155;-80
2022/10/15 03:36:46;;;;;;;9.07;6.75;;;;;;;;;;4974772;28;20030;-80
2022/10/15 03:39:13;;;;;;;11.50;7.30;;;;;;;;;;4992551;28;20462;-78
2022/10/15 03:41:39;;;;;;;13.65;6.95;;;;;;;;;;4974690;28;20096;-79
2022/10/15 03:44:06;;;;;;;12.77;7.07;;;;;;;;;;4975316;28;20706;-81
2022/10/15 03:46:32;;;;;;;11.07;6.75;;;;;;;;;;4975250;28;20066;-80
2022/10/15 03:48:57;;;;;;;11.38;6.80;;;;;;;;;;4975801;28;20030;-80
2022/10/15 03:51:23;;;;;;;12.40;6.72;;;;;;;;;;4992171;28;20050;-80
2022/10/15 03:53:49;;;;;;;10.48;6.20;;;;;;;;;;4974667;28;20044;-80
2022/10/15 03:56:14;;;;;;;10.68;6.95;;;;;;;;;;4974455;28;20410;-80
2022/10/15 03:58:40;;;;;;;14.57;7.70;;;;;;;;;;4974414;28;20033;-79
2022/10/15 04:01:14;;;;;;;14.38;7.35;;;;;;;;;;4973747;28;20037;-80
2022/10/15 04:03:40;;;;;;;12.70;7.05;;;;;;;;;;4973682;28;20030;-80
2022/10/15 04:06:06;;;;;;;12.85;7.32;;;;;;;;;;4993342;28;20526;-79
2022/10/15 04:08:32;;;;;;;11.48;7.82;;;;;;;;;;4974704;28;20046;-79
2022/10/15 04:11:00;;;;;;;11.38;6.50;;;;;;;;;;4975698;28;20037;-80
2022/10/15 04:13:27;;;;;;;14.20;7.72;;;;;;;;;;4977036;28;20093;-81
2022/10/15 04:15:52;;;;;;;11.65;7.10;;;;;;;;;;4974848;28;20498;-79
2022/10/15 04:18:21;;;;;;;15.13;7.10;;;;;;;;;;4975307;28;20038;-81
2022/10/15 04:20:47;;;;;;;16.25;7.28;;;;;;;;;;4974210;28;20110;-80
2022/10/15 04:23:13;;;;;;;16.67;7.30;;;;;;;;;;4974301;28;20047;-80
2022/10/15 04:25:39;;;;;;;13.63;7.35;;;;;;;;;;4975199;28;20030;-82
2022/10/15 04:28:05;;;;;;;12.68;8.10;;;;;;;;;;4976438;28;20553;-80
2022/10/15 04:30:30;;;;;;;13.82;7.25;;;;;;;;;;4997464;28;20030;-79
2022/10/15 04:32:56;;;;;;;10.10;7.30;;;;;;;;;;4994222;28;20030;-80
2022/10/15 04:35:21;;;;;;;15.73;7.65;;;;;;;;;;4994286;28;20331;-81
2022/10/15 04:37:47;;;;;;;14.43;8.48;;;;;;;;;;4993923;28;20065;-82
2022/10/15 04:40:13;;;;;;;13.73;7.10;;;;;;;;;;4993492;28;20061;-79
2022/10/15 04:42:38;;;;;;;12.27;7.65;;;;;;;;;;4992592;28;20030;-79
2022/10/15 04:45:05;;;;;;;17.58;8.05;;;;;;;;;;4992942;28;20145;-79
2022/10/15 04:47:31;;;;;;;12.45;7.40;;;;;;;;;;4993589;28;20034;-81
2022/10/15 04:49:56;;;;;;;9.35;6.35;;;;;;;;;;4993288;28;20120;-79
2022/10/15 04:52:22;;;;;;;17.52;9.52;;;;;;;;;;5011452;28;20120;-79
2022/10/15 04:54:48;;;;;;;15.57;7.53;;;;;;;;;;4993059;28;20045;-80
2022/10/15 04:57:13;;;;;;;11.68;7.55;;;;;;;;;;5010821;28;20046;-78
2022/10/15 04:59:39;;;;;;;13.45;6.88;;;;;;;;;;4992953;28;20451;-79
2022/10/15 05:02:04;;;;;;;14.05;8.27;;;;;;;;;;4993048;28;20050;-78
2022/10/15 05:04:30;;;;;;;11.13;7.00;;;;;;;;;;4995917;28;20046;-78
2022/10/15 05:06:56;;;;;;;10.50;6.75;;;;;;;;;;4993729;28;20029;-78
2022/10/15 05:09:21;;;;;;;12.25;6.90;;;;;;;;;;5010951;28;20034;-78
2022/10/15 05:11:47;;;;;;;12.68;7.82;;;;;;;;;;4992610;28;20400;-79
2022/10/15 05:14:12;;;;;;;11.63;7.60;;;;;;;;;;5010422;28;20026;-80
2022/10/15 05:16:38;;;;;;;13.68;7.03;;;;;;;;;;4993474;28;20522;-79
2022/10/15 05:19:05;;;;;;;12.57;7.22;;;;;;;;;;4992393;28;20057;-79
2022/10/15 05:21:32;;;;;;;11.00;7.32;;;;;;;;;;4993477;28;20062;-80
2022/10/15 05:23:59;;;;;;;12.27;7.53;;;;;;;;;;4993424;28;20062;-80
2022/10/15 05:26:27;;;;;;;16.13;7.63;;;;;;;;;;4975033;28;20058;-78
2022/10/15 05:28:52;;;;;;;10.93;7.45;;;;;;;;;;4972781;28;20061;-79
2022/10/15 05:31:20;;;;;;;12.50;7.25;;;;;;;;;;4990620;28;20053;-80
2022/10/15 05:33:46;;;;;;;11.55;6.18;;;;;;;;;;4973246;28;20030;-78
2022/10/15 05:36:18;;;;;;;12.35;6.88;;;;;;;;;;4959481;28;20030;-80
2022/10/15 05:38:48;;;;;;;12.57;7.70;;;;;;;;;;4973823;28;20041;-80
2022/10/15 05:41:14;;;;;;;13.63;7.90;;;;;;;;;;4973682;28;20034;-80
2022/10/15 05:43:40;;;;;;;10.48;7.90;;;;;;;;;;4972956;28;20033;-81
2022/10/15 05:46:06;;;;;;;14.95;10.63;;;;;;;;;;4991157;28;20030;-79
2022/10/15 05:48:31;;;;;;;12.38;7.53;;;;;;;;;;4973469;28;20483;-81
2022/10/15 05:51:05;;;;;;;17.73;7.15;;;;;;;;;;4972953;28;20029;-81
2022/10/15 05:53:31;;;;;;;13.18;7.07;;;;;;;;;;4990711;28;20041;-80
2022/10/15 05:55:58;;;;;;;15.55;8.07;;;;;;;;;;4973161;28;20643;-79
2022/10/15 05:58:28;;;;;;;12.18;7.25;;;;;;;;;;4972902;28;20034;-80
2022/10/15 06:00:59;;;;;;;13.48;8.27;;;;;;;;;;4972698;28;20838;-80
2022/10/15 06:03:25;;;;;;;11.40;7.28;;;;;;;;;;4972768;28;20049;-80
2022/10/15 06:05:51;;;;;;;13.18;7.47;;;;;;;;;;4972726;28;20030;-80
2022/10/15 06:08:17;;;;;;;12.40;6.97;;;;;;;;;;4990427;28;20022;-80
2022/10/15 06:10:43;;;;;;;12.35;7.63;;;;;;;;;;4973054;28;20068;-81
2022/10/15 06:13:09;;;;;;;10.48;7.03;;;;;;;;;;4990338;28;20105;-82
2022/10/15 06:15:38;;;;;;;10.93;7.13;;;;;;;;;;4990566;28;20054;-80
2022/10/15 06:18:04;;;;;;;14.45;7.53;;;;;;;;;;4972749;28;20081;-80
2022/10/15 06:20:29;;;;;;;9.68;7.50;;;;;;;;;;4972817;28;20026;-79
2022/10/15 06:22:59;;;;;;;12.43;7.13;;;;;;;;;;4968927;28;20043;-80
2022/10/15 06:25:25;;;;;;;14.85;8.35;;;;;;;;;;4959686;28;20480;-82
2022/10/15 06:27:50;;;;;;;14.10;8.43;;;;;;;;;;4953508;29;20123;-81
2022/10/15 06:30:16;;;;;;;11.95;7.55;;;;;;;;;;4955117;28;20038;-80
2022/10/15 06:32:52;;;;;;;11.40;7.63;;;;;;;;;;4953479;29;20467;-83
2022/10/15 06:35:20;;;;;;;12.68;7.60;;;;;;;;;;4953856;29;20055;-79
2022/10/15 06:37:46;;;;;;;13.07;7.63;;;;;;;;;;4953424;29;20508;-79
2022/10/15 06:40:11;;;;;;;13.27;8.48;;;;;;;;;;4953968;29;20142;-79
2022/10/15 06:42:39;;;;;;;15.00;8.10;;;;;;;;;;4953644;28;20077;-79
2022/10/15 06:45:06;;;;;;;15.13;7.63;;;;;;;;;;4954072;29;20060;-79
2022/10/15 06:47:32;;;;;;;12.57;8.48;;;;;;;;;;4953623;29;20067;-79
2022/10/15 06:49:57;;;;;;;13.23;7.07;;;;;;;;;;4954376;28;20069;-79
2022/10/15 06:52:23;;;;;;;13.45;8.25;;;;;;;;;;4955327;28;20034;-80
2022/10/15 06:54:49;;;;;;;10.77;6.80;;;;;;;;;;4954929;29;20031;-79
2022/10/15 06:57:15;;;;;;;15.10;7.30;;;;;;;;;;4953484;28;20055;-79
2022/10/15 06:59:40;;;;;;;11.95;7.28;;;;;;;;;;4952676;28;20038;-79
2022/10/15 07:02:08;;;;;;;12.63;7.53;;;;;;;;;;4954373;28;20027;-80
2022/10/15 07:04:34;;;;;;;13.80;8.18;;;;;;;;;;4952715;29;20643;-82
2022/10/15 07:06:59;;;;;;;12.93;7.45;;;;;;;;;;4952598;29;20122;-80
2022/10/15 07:09:25;;;;;;;11.05;6.18;;;;;;;;;;4952550;29;20057;-80
2022/10/15 07:11:51;;;;;;;12.32;6.93;;;;;;;;;;4952689;29;20038;-80
2022/10/15 07:14:17;;;;;;;10.63;7.32;;;;;;;;;;4952785;29;20063;-82
2022/10/15 07:16:42;;;;;;;13.57;6.88;;;;;;;;;;4954150;28;20494;-79
2022/10/15 07:19:08;;;;;;;12.38;7.47;;;;;;;;;;4952752;28;20057;-78
2022/10/15 07:21:33;;;;;;;18.13;8.45;;;;;;;;;;4958426;28;20031;-81
2022/10/15 07:24:00;;;;;;;12.63;6.88;;;;;;;;;;4994250;28;20161;-79
2022/10/15 07:26:29;;;;;;;12.65;7.07;;;;;;;;;;4977824;28;20128;-80
2022/10/15 07:28:55;;;;;;;15.10;7.70;;;;;;;;;;4994369;28;20041;-80
2022/10/15 07:31:21;;;;;;;9.43;6.00;;;;;;;;;;4978186;28;20022;-79
2022/10/15 07:33:46;;;;;;;7.82;5.90;;;;;;;;;;4996139;28;20041;-80
2022/10/15 07:36:12;;;;;;;13.05;7.43;;;;;;;;;;4977466;28;20057;-80
2022/10/15 07:38:39;;;;;;;11.52;7.22;;;;;;;;;;4974259;28;20117;-83
2022/10/15 07:41:06;;;;;;;11.20;6.22;;;;;;;;;;4975400;28;20100;-79
2022/10/15 07:43:33;;;;;;;9.02;6.15;;;;;;;;;;4975438;28;20158;-79
2022/10/15 07:45:58;;;;;;;10.10;6.60;;;;;;;;;;4992647;28;20041;-81
2022/10/15 07:48:24;;;;;;;12.95;6.43;;;;;;;;;;4975053;28;20026;-80
2022/10/15 07:50:57;;;;;;;13.90;8.00;;;;;;;;;;4993497;28;20418;-79
2022/10/15 07:53:23;;;;;;;13.05;7.47;;;;;;;;;;4975530;28;20037;-81
2022/10/15 07:55:49;;;;;;;8.98;5.75;;;;;;;;;;4975681;28;20030;-80
2022/10/15 07:58:15;;;;;;;11.05;6.93;;;;;;;;;;4974974;28;20057;-80
2022/10/15 08:00:41;;;;;;;13.50;7.45;;;;;;;;;;4992845;28;20419;-80
2022/10/15 08:03:06;;;;;;;11.02;7.00;;;;;;;;;;4975449;28;20030;-79
2022/10/15 08:05:33;;;;;;;11.32;7.18;;;;;;;;;;4975318;28;20038;-81
2022/10/15 08:07:58;;;;;;;12.18;7.63;;;;;;;;;;4974972;28;20041;-81
2022/10/15 08:10:24;;;;;;;8.10;5.78;;;;;;;;;;4974992;28;20034;-81
2022/10/15 08:12:49;;;;;;;10.38;6.53;;;;;;;;;;4992091;28;20053;-81
2022/10/15 08:15:15;;;;;;;8.80;5.95;;;;;;;;;;4975082;28;20052;-81
2022/10/15 08:17:41;;;;;;;9.18;6.40;;;;;;;;;;4968675;28;20037;-81
2022/10/15 08:20:07;;;;;;;14.77;7.60;;;;;;;;;;4972271;28;20065;-81
2022/10/15 08:22:33;;;;;;;13.77;6.75;;;;;;;;;;4974168;28;20160;-81
2022/10/15 08:24:58;;;;;;;9.13;6.57;;;;;;;;;;4972983;28;20465;-80
2022/10/15 08:27:24;;;;;;;9.30;5.68;;;;;;;;;;4992241;28;20112;-81
2022/10/15 08:29:50;;;;;;;9.98;7.05;;;;;;;;;;4957929;28;20551;-79
2022/10/15 08:32:15;;;;;;;9.77;5.85;;;;;;;;;;4975841;28;20030;-81
2022/10/15 08:34:41;;;;;;;10.10;5.60;;;;;;;;;;4975580;28;20038;-81
2022/10/15 08:37:07;;;;;;;9.82;5.55;;;;;;;;;;4975894;28;20041;-81
2022/10/15 08:39:32;;;;;;;8.95;6.45;;;;;;;;;;4974505;28;20030;-81
2022/10/15 08:42:02;;;;;;;10.20;6.38;;;;;;;;;;4992366;28;20101;-81
2022/10/15 08:44:39;;;;;;;10.35;6.15;;;;;;;;;;4992018;28;20041;-81
2022/10/15 08:47:28;;;;;;;13.30;5.85;;;;;;;;;;4991667;28;20034;-81
2022/10/15 08:50:11;;;;;;;9.32;5.57;;;;;;;;;;4991822;28;20206;-81
2022/10/15 08:52:43;;;;;;;8.45;5.57;;;;;;;;;;4974086;28;20104;-79
2022/10/15 08:55:13;;;;;;;7.35;5.45;;;;;;;;;;4973820;28;20065;-82
2022/10/15 08:57:52;;;;;;;11.75;7.20;;;;;;;;;;4957594;28;20038;-81
2022/10/15 09:00:21;;;;;;;10.23;5.47;;;;;;;;;;4974859;28;20041;-81
2022/10/15 09:03:12;;;;;;;8.32;5.40;;;;;;;;;;4973703;28;20049;-81
2022/10/15 09:05:51;;;;;;;11.88;6.40;;;;;;;;;;4973777;28;20034;-80
2022/10/15 09:08:24;;;;;;;8.48;5.50;;;;;;;;;;4991195;28;20035;-80
2022/10/15 09:11:07;;;;;;;8.35;5.97;;;;;;;;;;4973847;28;20180;-83
2022/10/15 09:13:39;;;;;;;7.57;5.10;;;;;;;;;;4976571;28;20026;-81
2022/10/15 09:16:23;;;;;;;;;;;;;;;;;;4988017;28;20028;-80
2022/10/15 09:18:51;;;;;;;6.97;5.25;;;;;;;;;;4994708;28;19957;-81
2022/10/15 09:21:21;;;;;;;9.13;6.15;;;;;;;;;;4994708;28;20026;-81
2022/10/15 09:23:46;;;;;;;8.13;5.72;;;;;;;;;;4991918;28;20399;-80
2022/10/15 09:26:12;;;;;;;7.65;4.85;;;;;;;;;;4974635;28;20089;-81
2022/10/15 09:29:03;;;;;;;9.32;5.90;;;;;;;;;;4970641;28;20543;-83
2022/10/15 09:31:37;;;;;;;11.33;6.10;;;;;;;;;;4979421;28;20014;-79
2022/10/15 09:34:14;;;;;;;11.50;5.30;;;;;;;;;;4978553;28;20077;-81
2022/10/15 09:37:01;;;;;;;10.80;5.43;;;;;;;;;;4966936;28;20041;-81
2022/10/15 09:39:41;;;;;;;6.68;5.20;;;;;;;;;;4972721;28;20026;-81
2022/10/15 09:42:22;;;;;;;9.30;4.88;;;;;;;;;;4970342;28;20464;-76
2022/10/15 09:44:50;;;;;;;7.93;4.90;;;;;;;;;;4970064;28;20117;-75
2022/10/15 09:47:26;;;;;;;9.73;4.80;;;;;;;;;;4969568;28;20027;-75
2022/10/15 09:49:52;;;;;;;9.02;4.50;;;;;;;;;;4971624;28;20046;-76
2022/10/15 09:53:13;;;;;;;9.52;5.13;;;;;;;;;;4970932;28;20042;-75
2022/10/15 09:55:55;;;;;;;7.57;4.35;;;;;;;;;;4935125;29;20054;-75
2022/10/15 09:58:54;;;;;;;6.38;4.68;;;;;;;;;;4970196;28;20039;-75
2022/10/15 10:01:24;;;;;;;8.02;4.65;;;;;;;;;;4955284;28;20391;-75
2022/10/15 10:04:10;;;;;;;6.33;4.40;;;;;;;;;;4973671;28;20029;-75
2022/10/15 10:06:49;;;;;;;8.95;4.22;;;;;;;;;;4973817;28;20097;-76
2022/10/15 10:09:26;;;;;;;8.95;5.03;;;;;;;;;;4974314;28;20026;-74
2022/10/15 10:11:58;;;;;;;7.82;4.68;;;;;;;;;;4957492;28;20034;-77
2022/10/15 10:14:39;;;;;;;5.70;4.50;;;;;;;;;;4957479;28;20022;-75
2022/10/15 10:17:18;;;;;;;6.93;4.20;;;;;;;;;;4975269;28;20486;-77
2022/10/15 10:20:00;;;;;;;7.95;4.10;;;;;;;;;;4973273;28;20539;-75
2022/10/15 10:22:41;;;;;;;8.43;4.60;;;;;;;;;;4982912;28;20069;-75
2022/10/15 10:25:26;;;;;;;9.20;5.93;;;;;;;;;;4976337;28;20030;-76
2022/10/15 10:27:53;;;;;;;7.97;4.47;;;;;;;;;;4977097;28;20022;-75
2022/10/15 10:30:19;;;;;;;6.03;4.35;;;;;;;;;;4977482;28;20378;-76
2022/10/15 10:32:54;;;;;;;7.80;4.40;;;;;;;;;;4960997;28;20030;-74
2022/10/15 10:35:23;;;;;;;6.18;4.05;;;;;;;;;;4977302;28;20537;-74
2022/10/15 10:37:50;;;;;;;5.07;4.00;;;;;;;;;;4977565;28;20557;-75
2022/10/15 10:40:28;;;;;;;6.47;4.20;;;;;;;;;;4977181;28;20386;-74
2022/10/15 10:43:18;;;;;;;8.82;4.22;;;;;;;;;;4993406;28;20145;-75
2022/10/15 10:46:27;;;;;;;;;;;;;;;;;;;;;
2022/10/15 10:48:53;;;;;;;6.03;3.97;;;;;;;;;;4994027;28;20026;-77
2022/10/15 10:51:26;;;;;;;8.55;5.20;;;;;;;;;;4993884;28;20436;-76
2022/10/15 10:54:02;;;;;;;5.93;3.85;;;;;;;;;;4962442;28;20026;-78
2022/10/15 10:56:41;;;;;;;9.52;5.07;;;;;;;;;;4977730;28;20027;-75
2022/10/15 10:59:49;;;;;;;5.25;4.32;;;;;;;;;;4961227;28;20034;-77
2022/10/15 11:02:15;;;;;;;7.32;4.15;;;;;;;;;;4880739;29;20119;-76
2022/10/15 11:04:41;;;;;;;5.93;4.25;;;;;;;;;;4880325;29;20072;-76
2022/10/15 11:07:06;;;;;;;7.65;3.90;;;;;;;;;;4942885;28;20042;-76
2022/10/15 11:09:46;;;;;;;6.45;4.13;;;;;;;;;;4976359;28;20045;-73
2022/10/15 11:12:39;;;;;;;6.57;3.88;;;;;;;;;;4976150;28;20061;-75
2022/10/15 11:15:42;;;;;;;6.93;3.80;;;;;;;;;;4993791;28;20029;-76
2022/10/15 11:18:33;;;;;;;10.45;5.53;;;;;;;;;;4975827;28;20037;-77
2022/10/15 11:21:06;;;;;;;8.23;4.73;;;;;;;;;;4975987;28;20049;-76
2022/10/15 11:23:37;;;;;;;8.02;4.43;;;;;;;;;;4992684;28;20292;-75
2022/10/15 11:26:28;;;;;;;20.65;14.35;;;;;;;;;;4976043;28;20099;-76
2022/10/15 11:29:23;;;;;;;6.50;3.38;;;;;;;;;;4994500;28;20026;-75
2022/10/15 11:31:56;;;;;;;9.68;5.78;;;;;;;;;;4976079;28;20037;-75
2022/10/15 11:34:38;;;;;;;6.28;4.57;;;;;;;;;;4975895;28;20038;-75
2022/10/15 11:37:38;;;;;;;4.72;3.60;;;;;;;;;;4960444;28;20175;-76
2022/10/15 11:40:42;;;;;;;9.30;4.45;;;;;;;;;;4975357;28;20034;-74
2022/10/15 11:43:36;;;;;;;9.40;4.38;;;;;;;;;;4975035;28;20061;-76
2022/10/15 11:46:23;;;;;;;5.90;4.40;;;;;;;;;;4974567;28;20026;-77
2022/10/15 11:49:12;;;;;;;4.35;3.58;;;;;;;;;;4974435;28;20026;-76
2022/10/15 11:51:53;;;;;;;5.70;3.88;;;;;;;;;;4975054;28;20034;-77
2022/10/15 11:54:30;;;;;;;8.02;3.30;;;;;;;;;;4974730;28;20096;-76
2022/10/15 11:56:59;;;;;;;4.15;3.28;;;;;;;;;;4974404;28;20034;-78
2022/10/15 11:59:34;;;;;;;4.07;3.40;;;;;;;;;;4974363;28;20030;-75
2022/10/15 12:02:04;;;;;;;9.05;3.38;;;;;;;;;;4974900;28;20030;-76
2022/10/15 12:04:39;;;;;;;5.95;2.85;;;;;;;;;;4974197;28;20037;-75
2022/10/15 12:07:11;;;;;;;5.80;3.85;;;;;;;;;;4974134;28;20403;-75
2022/10/15 12:09:38;;;;;;;;;;;;;;;;;;4959138;28;20125;-75
2022/10/15 12:12:16;;;;;;;4.93;3.22;;;;;;;;;;4992394;28;19976;-76
2022/10/15 12:15:03;;;;;;;5.72;3.08;;;;;;;;;;4976606;28;20023;-76
2022/10/15 12:17:45;;;;;;;6.28;3.40;;;;;;;;;;4974918;28;20018;-76
2022/10/15 12:20:20;;;;;;;4.15;3.30;;;;;;;;;;4992301;28;20546;-77
2022/10/15 12:22:45;;;;;;;5.60;3.65;;;;;;;;;;4992428;28;20050;-75
2022/10/15 12:25:32;;;;;;;5.95;4.20;;;;;;;;;;4974207;28;20053;-76
2022/10/15 12:28:23;;;;;;;5.03;3.30;;;;;;;;;;4974306;28;20040;-77
2022/10/15 12:30:55;;;;;;;5.30;4.10;;;;;;;;;;4991936;28;20024;-79
2022/10/15 12:33:25;;;;;;;7.03;3.35;;;;;;;;;;4974020;28;20026;-76
2022/10/15 12:35:56;;;;;;;9.13;3.85;;;;;;;;;;4991815;28;20056;-77
2022/10/15 12:38:35;;;;;;;8.93;6.45;;;;;;;;;;4974824;28;20030;-75
2022/10/15 12:41:10;;;;;;;5.68;3.85;;;;;;;;;;4975473;28;20072;-75
2022/10/15 12:43:52;;;;;;;4.80;3.65;;;;;;;;;;4975345;28;20084;-75
2022/10/15 12:46:18;;;;;;;5.30;3.55;;;;;;;;;;4975585;28;20031;-76
2022/10/15 12:48:45;;;;;;;7.18;4.43;;;;;;;;;;4992247;28;20038;-75
2022/10/15 12:51:22;;;;;;;4.55;3.53;;;;;;;;;;4989331;28;20037;-75
2022/10/15 12:53:56;;;;;;;8.35;4.20;;;;;;;;;;5010575;28;20450;-77
2022/10/15 12:56:40;;;;;;;5.10;4.00;;;;;;;;;;5010925;28;20029;-78
2022/10/15 12:59:50;;;;;;;4.97;4.15;;;;;;;;;;4978014;28;20030;-82
2022/10/15 13:02:36;;;;;;;9.23;5.55;;;;;;;;;;5013184;28;20026;-82
2022/10/15 13:05:04;;;;;;;13.65;4.82;;;;;;;;;;5010351;28;20060;-81
2022/10/15 13:07:33;;;;;;;7.47;4.40;;;;;;;;;;4993042;28;20033;-80
2022/10/15 13:10:00;;;;;;;7.18;4.25;;;;;;;;;;4992901;28;20068;-80
2022/10/15 13:12:28;;;;;;;6.90;4.80;;;;;;;;;;4992641;28;20030;-81
2022/10/15 13:15:02;;;;;;;8.40;4.78;;;;;;;;;;4992240;28;20109;-80
2022/10/15 13:17:30;;;;;;;9.45;5.10;;;;;;;;;;4976974;28;20060;-81
2022/10/15 13:20:03;;;;;;;5.68;4.65;;;;;;;;;;5011592;28;20053;-80
2022/10/15 13:22:31;;;;;;;10.50;5.72;;;;;;;;;;5012241;28;20143;-81
2022/10/15 13:24:58;;;;;;;7.95;5.20;;;;;;;;;;4988857;28;20026;-83
2022/10/15 13:27:33;;;;;;;6.90;4.78;;;;;;;;;;4957944;28;20548;-80
2022/10/15 13:30:01;;;;;;;4.93;3.88;;;;;;;;;;4991435;28;20026;-82
2022/10/15 13:32:34;;;;;;;5.68;4.40;;;;;;;;;;4990974;28;20022;-81
2022/10/15 13:35:03;;;;;;;6.15;4.65;;;;;;;;;;4974211;28;20019;-82
2022/10/15 13:37:31;;;;;;;6.57;4.53;;;;;;;;;;4960584;28;20049;-81
2022/10/15 13:39:58;;;;;;;5.80;4.50;;;;;;;;;;4978232;28;20030;-80
2022/10/15 13:42:25;;;;;;;7.88;4.50;;;;;;;;;;4977000;28;20121;-81
2022/10/15 13:45:00;;;;;;;7.32;5.72;;;;;;;;;;4977550;28;20479;-81
2022/10/15 13:47:34;;;;;;;6.20;4.55;;;;;;;;;;4977367;28;20116;-81
2022/10/15 13:50:18;;;;;;;7.88;4.90;;;;;;;;;;4977532;28;20038;-81
2022/10/15 13:53:00;;;;;;;9.30;5.50;;;;;;;;;;4977289;28;20607;-80
2022/10/15 13:55:28;;;;;;;8.48;5.18;;;;;;;;;;4976838;28;20548;-81
2022/10/15 13:58:04;;;;;;;8.88;5.38;;;;;;;;;;4976262;28;20675;-81
2022/10/15 14:00:33;;;;;;;6.78;4.38;;;;;;;;;;4976106;28;20022;-82
2022/10/15 14:03:16;;;;;;;13.05;5.43;;;;;;;;;;4976187;28;20025;-79
2022/10/15 14:05:44;;;;;;;8.02;5.30;;;;;;;;;;4976548;28;20247;-82
2022/10/15 14:08:16;;;;;;;7.60;5.85;;;;;;;;;;4976365;28;20582;-81
2022/10/15 14:10:41;;;;;;;9.25;5.35;;;;;;;;;;4976836;28;20117;-81
2022/10/15 14:13:10;;;;;;;5.38;4.60;;;;;;;;;;4976431;28;20118;-81
2022/10/15 14:15:58;;;;;;;9.40;5.43;;;;;;;;;;4976462;28;20137;-79
2022/10/15 14:18:45;;;;;;;7.10;5.05;;;;;;;;;;4962441;28;20061;-83
2022/10/15 14:21:17;;;;;;;7.85;5.30;;;;;;;;;;4994293;28;20022;-82
2022/10/15 14:23:45;;;;;;;7.57;4.85;;;;;;;;;;4974460;28;20050;-79
2022/10/15 14:26:11;;;;;;;8.23;5.38;;;;;;;;;;4972785;28;20026;-83
2022/10/15 14:28:39;;;;;;;10.80;5.32;;;;;;;;;;4977209;28;20022;-80
2022/10/15 14:31:07;;;;;;;7.72;5.65;;;;;;;;;;4976885;28;20033;-79
2022/10/15 14:33:38;;;;;;;9.20;5.80;;;;;;;;;;4976289;28;20064;-83
2022/10/15 14:36:18;;;;;;;10.13;5.78;;;;;;;;;;4977959;28;20022;-81
2022/10/15 14:38:44;;;;;;;7.45;4.93;;;;;;;;;;4979325;28;20132;-81
2022/10/15 14:41:29;;;;;;;11.10;6.15;;;;;;;;;;4996582;28;20730;-80
2022/10/15 14:44:05;;;;;;;10.98;5.40;;;;;;;;;;5000498;28;20046;-81
2022/10/15 14:46:44;;;;;;;12.30;9.85;;;;;;;;;;4982555;28;20018;-82
2022/10/15 14:49:30;;;;;;;10.43;6.30;;;;;;;;;;4982927;28;20470;-81
2022/10/15 14:52:05;;;;;;;9.85;6.00;;;;;;;;;;5003197;28;20054;-82
2022/10/15 14:54:35;;;;;;;8.93;5.38;;;;;;;;;;4987317;28;20034;-79
2022/10/15 14:57:02;;;;;;;11.50;5.75;;;;;;;;;;4992739;28;20050;-77
2022/10/15 14:59:31;;;;;;;8.98;5.22;;;;;;;;;;4991767;28;20100;-79
2022/10/15 15:02:00;;;;;;;10.32;6.18;;;;;;;;;;4983477;28;20026;-80
2022/10/15 15:04:41;;;;;;;8.45;5.57;;;;;;;;;;4976059;28;20117;-82